sensor_id;sensor_type;location;lat;lon;timestamp;temperature;humidity
814;DHT22;389;48.710;9.392;2023-02-01T00:01:55;6.20;96.60
814;DHT22;389;48.710;9.392;2023-02-01T00:04:21;6.10;96.60
814;DHT22;389;48.710;9.392;2023-02-01T00:06:47;6.10;96.70
814;DHT22;389;48.710;9.392;2023-02-01T00:09:13;6.10;96.80
814;DHT22;389;48.710;9.392;2023-02-01T00:11:39;6.10;96.90
814;DHT22;389;48.710;9.392;2023-02-01T00:14:05;6.00;96.90
814;DHT22;389;48.710;9.392;2023-02-01T00:16:31;6.00;97.00
814;DHT22;389;48.710;9.392;2023-02-01T00:19:03;6.00;97.10
814;DHT22;389;48.710;9.392;2023-02-01T00:21:29;6.00;97.10
814;DHT22;389;48.710;9.392;2023-02-01T00:23:55;6.00;97.20
814;DHT22;389;48.710;9.392;2023-02-01T00:26:38;6.00;97.30
814;DHT22;389;48.710;9.392;2023-02-01T00:29:06;5.90;97.40
814;DHT22;389;48.710;9.392;2023-02-01T00:31:32;5.90;97.40
814;DHT22;389;48.710;9.392;2023-02-01T00:33:58;6.00;97.50
814;DHT22;389;48.710;9.392;2023-02-01T00:36:24;5.90;97.50
814;DHT22;389;48.710;9.392;2023-02-01T00:38:50;5.90;97.60
814;DHT22;389;48.710;9.392;2023-02-01T00:41:18;5.90;97.60
814;DHT22;389;48.710;9.392;2023-02-01T00:43:45;5.90;97.70
814;DHT22;389;48.710;9.392;2023-02-01T00:46:12;5.80;97.70
814;DHT22;389;48.710;9.392;2023-02-01T00:48:38;5.80;97.70
814;DHT22;389;48.710;9.392;2023-02-01T00:51:12;5.80;97.70
814;DHT22;389;48.710;9.392;2023-02-01T00:53:39;5.80;97.70
814;DHT22;389;48.710;9.392;2023-02-01T00:56:05;5.80;97.70
814;DHT22;389;48.710;9.392;2023-02-01T00:58:32;5.80;97.80
814;DHT22;389;48.710;9.392;2023-02-01T01:03:26;5.80;97.70
814;DHT22;389;48.710;9.392;2023-02-01T01:05:57;5.80;97.70
814;DHT22;389;48.710;9.392;2023-02-01T01:08:23;5.80;97.70
814;DHT22;389;48.710;9.392;2023-02-01T01:10:48;5.80;97.70
814;DHT22;389;48.710;9.392;2023-02-01T01:13:15;5.80;97.70
814;DHT22;389;48.710;9.392;2023-02-01T01:15:41;5.80;97.70
814;DHT22;389;48.710;9.392;2023-02-01T01:18:07;5.80;97.70
814;DHT22;389;48.710;9.392;2023-02-01T01:20:39;5.90;97.70
814;DHT22;389;48.710;9.392;2023-02-01T01:23:06;5.80;97.70
814;DHT22;389;48.710;9.392;2023-02-01T01:25:31;5.80;97.70
814;DHT22;389;48.710;9.392;2023-02-01T01:27:57;5.80;97.70
814;DHT22;389;48.710;9.392;2023-02-01T01:30:22;5.80;97.60
814;DHT22;389;48.710;9.392;2023-02-01T01:32:48;5.90;97.70
814;DHT22;389;48.710;9.392;2023-02-01T01:35:14;5.90;97.60
814;DHT22;389;48.710;9.392;2023-02-01T01:37:40;5.90;97.60
814;DHT22;389;48.710;9.392;2023-02-01T01:40:07;5.90;97.70
814;DHT22;389;48.710;9.392;2023-02-01T01:42:41;5.80;97.60
814;DHT22;389;48.710;9.392;2023-02-01T01:45:25;5.80;97.60
814;DHT22;389;48.710;9.392;2023-02-01T01:48:13;5.90;97.60
814;DHT22;389;48.710;9.392;2023-02-01T01:50:50;5.90;97.60
814;DHT22;389;48.710;9.392;2023-02-01T01:53:20;5.90;97.60
814;DHT22;389;48.710;9.392;2023-02-01T01:55:49;5.80;97.60
814;DHT22;389;48.710;9.392;2023-02-01T01:58:18;5.90;97.60
814;DHT22;389;48.710;9.392;2023-02-01T02:00:45;5.90;97.60
814;DHT22;389;48.710;9.392;2023-02-01T02:03:18;5.90;97.50
814;DHT22;389;48.710;9.392;2023-02-01T02:05:45;5.90;97.50
814;DHT22;389;48.710;9.392;2023-02-01T02:08:11;5.90;97.50
814;DHT22;389;48.710;9.392;2023-02-01T02:10:37;5.90;97.50
814;DHT22;389;48.710;9.392;2023-02-01T02:13:38;6.00;97.50
814;DHT22;389;48.710;9.392;2023-02-01T02:16:09;6.00;97.50
814;DHT22;389;48.710;9.392;2023-02-01T02:19:12;6.00;97.50
814;DHT22;389;48.710;9.392;2023-02-01T02:27:33;6.00;97.50
814;DHT22;389;48.710;9.392;2023-02-01T02:36:00;5.90;97.50
814;DHT22;389;48.710;9.392;2023-02-01T02:41:15;6.00;97.60
814;DHT22;389;48.710;9.392;2023-02-01T02:44:10;6.00;97.60
814;DHT22;389;48.710;9.392;2023-02-01T02:47:00;6.00;97.50
814;DHT22;389;48.710;9.392;2023-02-01T02:53:18;6.00;97.50
814;DHT22;389;48.710;9.392;2023-02-01T02:56:06;6.00;97.50
814;DHT22;389;48.710;9.392;2023-02-01T02:58:53;6.00;97.50
814;DHT22;389;48.710;9.392;2023-02-01T03:01:38;6.10;97.50
814;DHT22;389;48.710;9.392;2023-02-01T03:04:24;6.10;97.40
814;DHT22;389;48.710;9.392;2023-02-01T03:06:52;6.10;97.50
814;DHT22;389;48.710;9.392;2023-02-01T03:09:33;6.10;97.50
814;DHT22;389;48.710;9.392;2023-02-01T03:12:04;6.10;97.60
814;DHT22;389;48.710;9.392;2023-02-01T03:14:56;6.10;97.80
814;DHT22;389;48.710;9.392;2023-02-01T03:17:29;6.30;98.50
814;DHT22;389;48.710;9.392;2023-02-01T03:20:00;6.10;98.30
814;DHT22;389;48.710;9.392;2023-02-01T03:22:28;6.20;98.60
814;DHT22;389;48.710;9.392;2023-02-01T03:25:03;6.00;98.70
814;DHT22;389;48.710;9.392;2023-02-01T03:27:30;6.00;98.80
814;DHT22;389;48.710;9.392;2023-02-01T03:32:29;5.90;98.90
814;DHT22;389;48.710;9.392;2023-02-01T03:35:15;5.90;99.00
814;DHT22;389;48.710;9.392;2023-02-01T03:37:40;5.90;99.00
814;DHT22;389;48.710;9.392;2023-02-01T03:40:08;5.90;99.10
814;DHT22;389;48.710;9.392;2023-02-01T03:42:49;5.80;99.20
814;DHT22;389;48.710;9.392;2023-02-01T03:47:49;5.80;99.20
814;DHT22;389;48.710;9.392;2023-02-01T03:50:18;5.80;99.30
814;DHT22;389;48.710;9.392;2023-02-01T03:52:59;5.80;99.30
814;DHT22;389;48.710;9.392;2023-02-01T03:55:28;5.80;99.30
814;DHT22;389;48.710;9.392;2023-02-01T04:00:28;5.80;99.30
814;DHT22;389;48.710;9.392;2023-02-01T04:02:54;5.80;99.30
814;DHT22;389;48.710;9.392;2023-02-01T04:05:20;5.80;99.40
814;DHT22;389;48.710;9.392;2023-02-01T04:07:46;5.80;99.40
814;DHT22;389;48.710;9.392;2023-02-01T04:10:12;5.80;99.50
814;DHT22;389;48.710;9.392;2023-02-01T04:12:39;5.80;99.40
814;DHT22;389;48.710;9.392;2023-02-01T04:15:05;5.80;99.40
814;DHT22;389;48.710;9.392;2023-02-01T04:17:31;5.90;99.40
814;DHT22;389;48.710;9.392;2023-02-01T04:19:56;5.90;99.30
814;DHT22;389;48.710;9.392;2023-02-01T04:22:22;5.90;99.30
814;DHT22;389;48.710;9.392;2023-02-01T04:24:48;5.90;99.30
814;DHT22;389;48.710;9.392;2023-02-01T04:27:13;5.90;99.20
814;DHT22;389;48.710;9.392;2023-02-01T04:29:39;5.90;99.10
814;DHT22;389;48.710;9.392;2023-02-01T04:32:05;6.00;99.10
814;DHT22;389;48.710;9.392;2023-02-01T04:34:31;5.90;99.00
814;DHT22;389;48.710;9.392;2023-02-01T04:36:57;6.00;99.00
814;DHT22;389;48.710;9.392;2023-02-01T04:39:22;6.00;99.00
814;DHT22;389;48.710;9.392;2023-02-01T04:41:48;6.00;99.00
814;DHT22;389;48.710;9.392;2023-02-01T04:44:17;6.00;98.90
814;DHT22;389;48.710;9.392;2023-02-01T04:46:46;6.00;98.80
814;DHT22;389;48.710;9.392;2023-02-01T04:49:13;6.20;98.80
814;DHT22;389;48.710;9.392;2023-02-01T04:51:39;6.10;98.70
814;DHT22;389;48.710;9.392;2023-02-01T04:54:06;6.10;98.60
814;DHT22;389;48.710;9.392;2023-02-01T04:56:31;6.00;98.50
814;DHT22;389;48.710;9.392;2023-02-01T04:58:57;6.00;98.40
814;DHT22;389;48.710;9.392;2023-02-01T05:01:23;6.10;98.50
814;DHT22;389;48.710;9.392;2023-02-01T05:03:50;6.00;98.40
814;DHT22;389;48.710;9.392;2023-02-01T05:06:15;6.10;98.50
814;DHT22;389;48.710;9.392;2023-02-01T05:08:41;6.00;98.40
814;DHT22;389;48.710;9.392;2023-02-01T05:11:06;6.00;98.40
814;DHT22;389;48.710;9.392;2023-02-01T05:13:52;6.00;98.30
814;DHT22;389;48.710;9.392;2023-02-01T05:16:17;6.10;98.40
814;DHT22;389;48.710;9.392;2023-02-01T05:18:43;6.10;98.30
814;DHT22;389;48.710;9.392;2023-02-01T05:21:09;6.10;98.30
814;DHT22;389;48.710;9.392;2023-02-01T05:23:34;6.10;98.20
814;DHT22;389;48.710;9.392;2023-02-01T05:26:20;6.10;98.10
814;DHT22;389;48.710;9.392;2023-02-01T05:28:45;6.10;98.10
814;DHT22;389;48.710;9.392;2023-02-01T05:31:11;6.10;98.10
814;DHT22;389;48.710;9.392;2023-02-01T05:33:37;6.10;98.00
814;DHT22;389;48.710;9.392;2023-02-01T05:36:03;6.10;98.00
814;DHT22;389;48.710;9.392;2023-02-01T05:38:28;6.20;98.00
814;DHT22;389;48.710;9.392;2023-02-01T05:40:55;6.10;97.90
814;DHT22;389;48.710;9.392;2023-02-01T05:43:22;6.20;97.90
814;DHT22;389;48.710;9.392;2023-02-01T05:45:47;6.10;97.80
814;DHT22;389;48.710;9.392;2023-02-01T05:48:13;6.20;98.10
814;DHT22;389;48.710;9.392;2023-02-01T05:50:43;6.30;97.80
814;DHT22;389;48.710;9.392;2023-02-01T05:53:08;6.30;97.80
814;DHT22;389;48.710;9.392;2023-02-01T05:55:34;6.20;97.70
814;DHT22;389;48.710;9.392;2023-02-01T05:58:01;6.20;97.70
814;DHT22;389;48.710;9.392;2023-02-01T06:00:30;6.20;97.60
814;DHT22;389;48.710;9.392;2023-02-01T06:02:55;6.20;97.80
814;DHT22;389;48.710;9.392;2023-02-01T06:05:21;6.20;97.60
814;DHT22;389;48.710;9.392;2023-02-01T06:07:46;6.20;97.60
814;DHT22;389;48.710;9.392;2023-02-01T06:10:12;6.20;97.60
814;DHT22;389;48.710;9.392;2023-02-01T06:12:38;6.20;97.80
814;DHT22;389;48.710;9.392;2023-02-01T06:15:04;6.20;98.00
814;DHT22;389;48.710;9.392;2023-02-01T06:17:30;6.20;98.20
814;DHT22;389;48.710;9.392;2023-02-01T06:19:55;6.20;98.30
814;DHT22;389;48.710;9.392;2023-02-01T06:22:21;6.10;98.40
814;DHT22;389;48.710;9.392;2023-02-01T06:24:47;6.10;98.60
814;DHT22;389;48.710;9.392;2023-02-01T06:27:14;6.10;98.70
814;DHT22;389;48.710;9.392;2023-02-01T06:29:40;6.00;98.80
814;DHT22;389;48.710;9.392;2023-02-01T06:32:05;6.10;99.00
814;DHT22;389;48.710;9.392;2023-02-01T06:34:32;5.90;99.00
814;DHT22;389;48.710;9.392;2023-02-01T06:36:57;5.90;99.00
814;DHT22;389;48.710;9.392;2023-02-01T06:39:23;5.90;99.10
814;DHT22;389;48.710;9.392;2023-02-01T06:41:49;5.90;99.10
814;DHT22;389;48.710;9.392;2023-02-01T06:44:15;5.90;99.10
814;DHT22;389;48.710;9.392;2023-02-01T06:46:41;5.90;99.10
814;DHT22;389;48.710;9.392;2023-02-01T06:49:07;5.90;99.00
814;DHT22;389;48.710;9.392;2023-02-01T06:51:33;5.90;99.00
814;DHT22;389;48.710;9.392;2023-02-01T06:53:59;5.90;99.00
814;DHT22;389;48.710;9.392;2023-02-01T06:56:25;5.90;99.00
814;DHT22;389;48.710;9.392;2023-02-01T06:58:51;5.90;98.90
814;DHT22;389;48.710;9.392;2023-02-01T07:01:17;6.10;99.00
814;DHT22;389;48.710;9.392;2023-02-01T07:03:47;6.00;98.90
814;DHT22;389;48.710;9.392;2023-02-01T07:06:13;6.00;98.80
814;DHT22;389;48.710;9.392;2023-02-01T07:08:38;6.00;98.70
814;DHT22;389;48.710;9.392;2023-02-01T07:11:09;6.10;98.70
814;DHT22;389;48.710;9.392;2023-02-01T07:13:35;6.10;98.60
814;DHT22;389;48.710;9.392;2023-02-01T07:16:02;6.10;98.60
814;DHT22;389;48.710;9.392;2023-02-01T07:18:29;6.10;98.50
814;DHT22;389;48.710;9.392;2023-02-01T07:20:55;6.20;98.50
814;DHT22;389;48.710;9.392;2023-02-01T07:23:21;6.20;98.30
814;DHT22;389;48.710;9.392;2023-02-01T07:25:47;6.20;98.20
814;DHT22;389;48.710;9.392;2023-02-01T07:28:13;6.30;98.20
814;DHT22;389;48.710;9.392;2023-02-01T07:30:39;6.30;98.10
814;DHT22;389;48.710;9.392;2023-02-01T07:33:06;6.40;98.20
814;DHT22;389;48.710;9.392;2023-02-01T07:35:32;6.30;98.10
814;DHT22;389;48.710;9.392;2023-02-01T07:37:57;6.30;98.10
814;DHT22;389;48.710;9.392;2023-02-01T07:40:23;6.30;98.10
814;DHT22;389;48.710;9.392;2023-02-01T07:42:54;6.30;98.10
814;DHT22;389;48.710;9.392;2023-02-01T07:45:21;6.30;98.00
814;DHT22;389;48.710;9.392;2023-02-01T07:47:46;6.30;98.00
814;DHT22;389;48.710;9.392;2023-02-01T07:50:12;6.40;98.10
814;DHT22;389;48.710;9.392;2023-02-01T07:52:37;6.40;98.10
814;DHT22;389;48.710;9.392;2023-02-01T07:55:03;6.40;98.00
814;DHT22;389;48.710;9.392;2023-02-01T07:57:29;6.40;98.00
814;DHT22;389;48.710;9.392;2023-02-01T07:59:55;6.40;97.90
814;DHT22;389;48.710;9.392;2023-02-01T08:02:39;6.50;98.00
814;DHT22;389;48.710;9.392;2023-02-01T08:05:05;6.50;97.80
814;DHT22;389;48.710;9.392;2023-02-01T08:07:31;6.50;97.80
814;DHT22;389;48.710;9.392;2023-02-01T08:09:56;6.50;97.80
814;DHT22;389;48.710;9.392;2023-02-01T08:12:34;6.50;97.80
814;DHT22;389;48.710;9.392;2023-02-01T08:15:00;6.50;97.80
814;DHT22;389;48.710;9.392;2023-02-01T08:17:25;6.50;97.70
814;DHT22;389;48.710;9.392;2023-02-01T08:19:51;6.50;97.60
814;DHT22;389;48.710;9.392;2023-02-01T08:22:17;6.60;97.60
814;DHT22;389;48.710;9.392;2023-02-01T08:24:42;6.60;97.50
814;DHT22;389;48.710;9.392;2023-02-01T08:27:08;6.70;97.50
814;DHT22;389;48.710;9.392;2023-02-01T08:29:33;6.70;97.50
814;DHT22;389;48.710;9.392;2023-02-01T08:31:59;6.70;97.40
814;DHT22;389;48.710;9.392;2023-02-01T08:34:25;6.70;97.30
814;DHT22;389;48.710;9.392;2023-02-01T08:36:52;6.80;97.20
814;DHT22;389;48.710;9.392;2023-02-01T08:39:22;6.90;97.20
814;DHT22;389;48.710;9.392;2023-02-01T08:41:48;6.90;97.10
814;DHT22;389;48.710;9.392;2023-02-01T08:44:33;7.00;97.00
814;DHT22;389;48.710;9.392;2023-02-01T08:46:59;7.10;96.80
814;DHT22;389;48.710;9.392;2023-02-01T08:49:24;7.10;96.60
814;DHT22;389;48.710;9.392;2023-02-01T08:51:50;7.20;96.50
814;DHT22;389;48.710;9.392;2023-02-01T08:54:15;7.10;96.40
814;DHT22;389;48.710;9.392;2023-02-01T08:56:41;7.30;96.40
814;DHT22;389;48.710;9.392;2023-02-01T08:59:06;7.30;96.70
814;DHT22;389;48.710;9.392;2023-02-01T09:01:32;7.30;96.40
814;DHT22;389;48.710;9.392;2023-02-01T09:03:57;7.40;96.40
814;DHT22;389;48.710;9.392;2023-02-01T09:06:23;7.40;96.10
814;DHT22;389;48.710;9.392;2023-02-01T09:08:49;7.50;96.00
814;DHT22;389;48.710;9.392;2023-02-01T09:11:17;7.50;95.90
814;DHT22;389;48.710;9.392;2023-02-01T09:13:44;7.60;95.70
814;DHT22;389;48.710;9.392;2023-02-01T09:16:11;7.60;95.60
814;DHT22;389;48.710;9.392;2023-02-01T09:18:36;7.60;95.50
814;DHT22;389;48.710;9.392;2023-02-01T09:21:06;7.60;95.30
814;DHT22;389;48.710;9.392;2023-02-01T09:23:32;7.70;95.30
814;DHT22;389;48.710;9.392;2023-02-01T09:26:03;7.60;95.30
814;DHT22;389;48.710;9.392;2023-02-01T09:28:29;7.50;95.20
814;DHT22;389;48.710;9.392;2023-02-01T09:30:58;7.50;95.30
814;DHT22;389;48.710;9.392;2023-02-01T09:33:25;7.50;95.30
814;DHT22;389;48.710;9.392;2023-02-01T09:36:02;7.50;95.30
814;DHT22;389;48.710;9.392;2023-02-01T09:38:28;7.40;95.20
814;DHT22;389;48.710;9.392;2023-02-01T09:40:55;7.30;95.20
814;DHT22;389;48.710;9.392;2023-02-01T09:43:36;7.30;95.30
814;DHT22;389;48.710;9.392;2023-02-01T09:48:52;7.30;95.40
814;DHT22;389;48.710;9.392;2023-02-01T09:51:25;7.30;95.40
814;DHT22;389;48.710;9.392;2023-02-01T09:54:12;7.30;95.40
814;DHT22;389;48.710;9.392;2023-02-01T09:56:49;7.10;95.30
814;DHT22;389;48.710;9.392;2023-02-01T09:59:46;7.40;95.40
814;DHT22;389;48.710;9.392;2023-02-01T10:02:17;7.30;95.30
814;DHT22;389;48.710;9.392;2023-02-01T10:04:45;7.40;95.30
814;DHT22;389;48.710;9.392;2023-02-01T10:09:58;7.60;95.00
814;DHT22;389;48.710;9.392;2023-02-01T10:15:28;7.80;94.80
814;DHT22;389;48.710;9.392;2023-02-01T10:20:43;8.00;94.40
814;DHT22;389;48.710;9.392;2023-02-01T10:23:31;8.00;94.20
814;DHT22;389;48.710;9.392;2023-02-01T10:26:05;8.10;94.10
814;DHT22;389;48.710;9.392;2023-02-01T10:28:36;8.00;94.00
814;DHT22;389;48.710;9.392;2023-02-01T10:31:03;8.00;93.80
814;DHT22;389;48.710;9.392;2023-02-01T10:33:44;8.00;93.80
814;DHT22;389;48.710;9.392;2023-02-01T10:36:21;8.10;93.80
814;DHT22;389;48.710;9.392;2023-02-01T10:38:47;8.10;93.80
814;DHT22;389;48.710;9.392;2023-02-01T10:41:16;8.10;93.80
814;DHT22;389;48.710;9.392;2023-02-01T10:43:43;8.20;93.70
814;DHT22;389;48.710;9.392;2023-02-01T10:46:09;8.20;93.70
814;DHT22;389;48.710;9.392;2023-02-01T10:48:36;8.30;93.60
814;DHT22;389;48.710;9.392;2023-02-01T10:51:27;8.40;93.50
814;DHT22;389;48.710;9.392;2023-02-01T10:54:00;8.50;93.40
814;DHT22;389;48.710;9.392;2023-02-01T10:56:28;8.50;93.50
814;DHT22;389;48.710;9.392;2023-02-01T10:59:03;8.60;93.30
814;DHT22;389;48.710;9.392;2023-02-01T11:01:36;8.60;93.00
814;DHT22;389;48.710;9.392;2023-02-01T11:04:05;8.60;93.00
814;DHT22;389;48.710;9.392;2023-02-01T11:06:37;8.60;93.00
814;DHT22;389;48.710;9.392;2023-02-01T11:16:55;8.60;92.90
814;DHT22;389;48.710;9.392;2023-02-01T11:19:22;8.70;92.90
814;DHT22;389;48.710;9.392;2023-02-01T11:21:59;8.80;92.50
814;DHT22;389;48.710;9.392;2023-02-01T11:24:33;8.90;92.40
814;DHT22;389;48.710;9.392;2023-02-01T11:27:03;8.90;92.20
814;DHT22;389;48.710;9.392;2023-02-01T11:29:34;9.00;92.30
814;DHT22;389;48.710;9.392;2023-02-01T11:32:01;9.00;91.80
814;DHT22;389;48.710;9.392;2023-02-01T11:34:39;9.00;91.70
814;DHT22;389;48.710;9.392;2023-02-01T11:39:41;9.00;91.60
814;DHT22;389;48.710;9.392;2023-02-01T11:42:14;9.00;91.40
814;DHT22;389;48.710;9.392;2023-02-01T11:44:45;9.00;91.30
814;DHT22;389;48.710;9.392;2023-02-01T11:49:54;9.00;91.00
814;DHT22;389;48.710;9.392;2023-02-01T11:58:20;9.00;90.70
814;DHT22;389;48.710;9.392;2023-02-01T12:01:07;9.00;90.50
814;DHT22;389;48.710;9.392;2023-02-01T12:06:51;9.10;90.10
814;DHT22;389;48.710;9.392;2023-02-01T12:23:10;9.10;89.00
814;DHT22;389;48.710;9.392;2023-02-01T12:25:44;9.10;88.80
814;DHT22;389;48.710;9.392;2023-02-01T12:28:21;9.00;88.60
814;DHT22;389;48.710;9.392;2023-02-01T12:31:23;9.00;89.10
814;DHT22;389;48.710;9.392;2023-02-01T12:34:39;9.00;89.30
814;DHT22;389;48.710;9.392;2023-02-01T12:42:39;8.90;89.50
814;DHT22;389;48.710;9.392;2023-02-01T12:45:18;8.90;89.40
814;DHT22;389;48.710;9.392;2023-02-01T12:47:54;8.80;88.90
814;DHT22;389;48.710;9.392;2023-02-01T12:50:28;8.80;89.30
814;DHT22;389;48.710;9.392;2023-02-01T12:53:47;8.70;89.40
814;DHT22;389;48.710;9.392;2023-02-01T12:55:58;8.60;88.90
814;DHT22;389;48.710;9.392;2023-02-01T12:58:47;8.50;88.40
814;DHT22;389;48.710;9.392;2023-02-01T13:02:09;8.50;88.90
814;DHT22;389;48.710;9.392;2023-02-01T13:04:30;8.40;88.60
814;DHT22;389;48.710;9.392;2023-02-01T13:07:27;8.40;88.60
814;DHT22;389;48.710;9.392;2023-02-01T13:10:03;8.40;88.60
814;DHT22;389;48.710;9.392;2023-02-01T13:12:45;8.40;88.50
814;DHT22;389;48.710;9.392;2023-02-01T13:15:21;8.40;88.30
814;DHT22;389;48.710;9.392;2023-02-01T13:17:49;8.40;88.90
814;DHT22;389;48.710;9.392;2023-02-01T13:20:18;8.40;88.80
814;DHT22;389;48.710;9.392;2023-02-01T13:22:48;8.40;89.00
814;DHT22;389;48.710;9.392;2023-02-01T13:25:20;8.40;89.00
814;DHT22;389;48.710;9.392;2023-02-01T13:27:49;8.30;89.10
814;DHT22;389;48.710;9.392;2023-02-01T13:30:39;8.40;88.90
814;DHT22;389;48.710;9.392;2023-02-01T13:33:14;8.40;88.60
814;DHT22;389;48.710;9.392;2023-02-01T13:44:04;8.50;89.80
814;DHT22;389;48.710;9.392;2023-02-01T13:46:41;8.50;90.10
814;DHT22;389;48.710;9.392;2023-02-01T13:49:24;8.50;89.70
814;DHT22;389;48.710;9.392;2023-02-01T13:51:54;8.40;89.70
814;DHT22;389;48.710;9.392;2023-02-01T13:57:38;8.40;90.10
814;DHT22;389;48.710;9.392;2023-02-01T14:05:57;8.40;89.70
814;DHT22;389;48.710;9.392;2023-02-01T14:10:54;8.30;89.80
814;DHT22;389;48.710;9.392;2023-02-01T14:13:41;8.30;90.00
814;DHT22;389;48.710;9.392;2023-02-01T14:16:13;8.30;90.00
814;DHT22;389;48.710;9.392;2023-02-01T14:18:49;8.20;90.00
814;DHT22;389;48.710;9.392;2023-02-01T14:21:32;8.20;90.00
814;DHT22;389;48.710;9.392;2023-02-01T14:24:15;8.10;90.10
814;DHT22;389;48.710;9.392;2023-02-01T14:26:47;8.10;90.10
814;DHT22;389;48.710;9.392;2023-02-01T14:29:59;8.10;90.40
814;DHT22;389;48.710;9.392;2023-02-01T14:32:30;8.00;90.20
814;DHT22;389;48.710;9.392;2023-02-01T14:35:00;8.10;90.30
814;DHT22;389;48.710;9.392;2023-02-01T14:37:30;8.20;90.30
814;DHT22;389;48.710;9.392;2023-02-01T14:55:40;8.20;90.00
814;DHT22;389;48.710;9.392;2023-02-01T14:58:26;8.30;90.10
814;DHT22;389;48.710;9.392;2023-02-01T15:00:57;8.20;90.20
814;DHT22;389;48.710;9.392;2023-02-01T15:03:47;8.10;90.20
814;DHT22;389;48.710;9.392;2023-02-01T15:09:43;8.00;90.40
814;DHT22;389;48.710;9.392;2023-02-01T15:14:42;8.00;90.60
814;DHT22;389;48.710;9.392;2023-02-01T15:22:19;7.90;90.70
814;DHT22;389;48.710;9.392;2023-02-01T15:24:52;7.90;90.70
814;DHT22;389;48.710;9.392;2023-02-01T15:27:18;7.90;90.80
814;DHT22;389;48.710;9.392;2023-02-01T15:29:43;8.00;90.90
814;DHT22;389;48.710;9.392;2023-02-01T15:32:32;7.80;90.90
814;DHT22;389;48.710;9.392;2023-02-01T15:34:59;7.80;91.00
814;DHT22;389;48.710;9.392;2023-02-01T15:37:26;7.80;91.10
814;DHT22;389;48.710;9.392;2023-02-01T15:42:53;7.70;91.10
814;DHT22;389;48.710;9.392;2023-02-01T15:45:22;7.70;91.10
814;DHT22;389;48.710;9.392;2023-02-01T15:47:54;7.70;91.20
814;DHT22;389;48.710;9.392;2023-02-01T15:50:20;7.80;91.40
814;DHT22;389;48.710;9.392;2023-02-01T15:52:48;7.70;91.40
814;DHT22;389;48.710;9.392;2023-02-01T15:55:24;7.70;91.50
814;DHT22;389;48.710;9.392;2023-02-01T15:57:52;7.70;91.50
814;DHT22;389;48.710;9.392;2023-02-01T16:00:30;7.70;91.60
814;DHT22;389;48.710;9.392;2023-02-01T16:03:05;7.70;91.60
814;DHT22;389;48.710;9.392;2023-02-01T16:05:36;7.70;91.50
814;DHT22;389;48.710;9.392;2023-02-01T16:08:16;7.60;91.40
814;DHT22;389;48.710;9.392;2023-02-01T16:10:50;7.60;91.40
814;DHT22;389;48.710;9.392;2023-02-01T16:13:23;7.60;91.40
814;DHT22;389;48.710;9.392;2023-02-01T16:15:59;7.60;91.50
814;DHT22;389;48.710;9.392;2023-02-01T16:18:42;7.60;91.50
814;DHT22;389;48.710;9.392;2023-02-01T16:21:09;7.50;91.50
814;DHT22;389;48.710;9.392;2023-02-01T16:23:35;7.50;91.40
814;DHT22;389;48.710;9.392;2023-02-01T16:26:06;7.50;91.40
814;DHT22;389;48.710;9.392;2023-02-01T16:28:32;7.40;91.30
814;DHT22;389;48.710;9.392;2023-02-01T16:31:04;7.60;91.30
814;DHT22;389;48.710;9.392;2023-02-01T16:33:33;7.50;91.30
814;DHT22;389;48.710;9.392;2023-02-01T16:36:02;7.50;91.40
814;DHT22;389;48.710;9.392;2023-02-01T16:38:31;7.50;91.40
814;DHT22;389;48.710;9.392;2023-02-01T16:40:57;7.50;91.30
814;DHT22;389;48.710;9.392;2023-02-01T16:43:25;7.50;91.40
814;DHT22;389;48.710;9.392;2023-02-01T16:45:53;7.50;91.40
814;DHT22;389;48.710;9.392;2023-02-01T16:48:25;7.50;91.40
814;DHT22;389;48.710;9.392;2023-02-01T16:50:54;7.50;91.40
814;DHT22;389;48.710;9.392;2023-02-01T16:53:21;7.50;91.40
814;DHT22;389;48.710;9.392;2023-02-01T16:55:47;7.50;91.40
814;DHT22;389;48.710;9.392;2023-02-01T16:58:17;7.50;91.30
814;DHT22;389;48.710;9.392;2023-02-01T17:00:44;7.50;91.20
814;DHT22;389;48.710;9.392;2023-02-01T17:03:11;7.50;91.20
814;DHT22;389;48.710;9.392;2023-02-01T17:05:49;7.50;91.00
814;DHT22;389;48.710;9.392;2023-02-01T17:08:19;7.50;91.10
814;DHT22;389;48.710;9.392;2023-02-01T17:10:46;7.50;91.10
814;DHT22;389;48.710;9.392;2023-02-01T17:13:16;7.40;91.10
814;DHT22;389;48.710;9.392;2023-02-01T17:18:37;7.40;91.00
814;DHT22;389;48.710;9.392;2023-02-01T17:21:04;7.40;91.00
814;DHT22;389;48.710;9.392;2023-02-01T17:23:30;7.40;91.10
814;DHT22;389;48.710;9.392;2023-02-01T17:25:56;7.40;91.10
814;DHT22;389;48.710;9.392;2023-02-01T17:28:54;7.40;91.20
814;DHT22;389;48.710;9.392;2023-02-01T17:31:20;7.40;91.30
814;DHT22;389;48.710;9.392;2023-02-01T17:33:46;7.40;91.40
814;DHT22;389;48.710;9.392;2023-02-01T17:36:15;7.40;91.40
814;DHT22;389;48.710;9.392;2023-02-01T17:38:41;7.30;91.40
814;DHT22;389;48.710;9.392;2023-02-01T17:41:12;7.40;91.50
814;DHT22;389;48.710;9.392;2023-02-01T17:43:39;7.30;91.50
814;DHT22;389;48.710;9.392;2023-02-01T17:46:13;7.30;91.50
814;DHT22;389;48.710;9.392;2023-02-01T17:48:39;7.30;91.50
814;DHT22;389;48.710;9.392;2023-02-01T17:51:16;7.30;91.50
814;DHT22;389;48.710;9.392;2023-02-01T17:53:44;7.30;91.50
814;DHT22;389;48.710;9.392;2023-02-01T17:56:14;7.30;91.40
814;DHT22;389;48.710;9.392;2023-02-01T17:58:40;7.30;91.30
814;DHT22;389;48.710;9.392;2023-02-01T18:01:11;7.30;91.30
814;DHT22;389;48.710;9.392;2023-02-01T18:03:37;7.30;91.20
814;DHT22;389;48.710;9.392;2023-02-01T18:06:03;7.30;91.20
814;DHT22;389;48.710;9.392;2023-02-01T18:08:30;7.30;91.30
814;DHT22;389;48.710;9.392;2023-02-01T18:10:59;7.30;91.40
814;DHT22;389;48.710;9.392;2023-02-01T18:13:27;7.30;91.50
814;DHT22;389;48.710;9.392;2023-02-01T18:15:52;7.30;91.60
814;DHT22;389;48.710;9.392;2023-02-01T18:18:18;7.30;91.60
814;DHT22;389;48.710;9.392;2023-02-01T18:20:45;7.30;91.60
814;DHT22;389;48.710;9.392;2023-02-01T18:23:19;7.30;91.60
814;DHT22;389;48.710;9.392;2023-02-01T18:25:45;7.20;91.60
814;DHT22;389;48.710;9.392;2023-02-01T18:28:12;7.20;91.70
814;DHT22;389;48.710;9.392;2023-02-01T18:30:40;7.20;91.70
814;DHT22;389;48.710;9.392;2023-02-01T18:33:10;7.30;91.70
814;DHT22;389;48.710;9.392;2023-02-01T18:35:36;7.20;91.90
814;DHT22;389;48.710;9.392;2023-02-01T18:38:01;7.20;91.70
814;DHT22;389;48.710;9.392;2023-02-01T18:40:29;7.20;91.60
814;DHT22;389;48.710;9.392;2023-02-01T18:42:57;7.20;91.50
814;DHT22;389;48.710;9.392;2023-02-01T18:45:27;7.20;91.50
814;DHT22;389;48.710;9.392;2023-02-01T18:47:53;7.20;91.40
814;DHT22;389;48.710;9.392;2023-02-01T18:50:19;7.20;91.30
814;DHT22;389;48.710;9.392;2023-02-01T18:52:45;7.20;91.30
814;DHT22;389;48.710;9.392;2023-02-01T18:55:11;7.30;91.40
814;DHT22;389;48.710;9.392;2023-02-01T18:57:38;7.30;91.30
814;DHT22;389;48.710;9.392;2023-02-01T19:00:05;7.30;91.30
814;DHT22;389;48.710;9.392;2023-02-01T19:02:32;7.30;91.30
814;DHT22;389;48.710;9.392;2023-02-01T19:04:58;7.30;91.30
814;DHT22;389;48.710;9.392;2023-02-01T19:07:23;7.30;91.30
814;DHT22;389;48.710;9.392;2023-02-01T19:09:49;7.40;91.40
814;DHT22;389;48.710;9.392;2023-02-01T19:12:14;7.30;91.30
814;DHT22;389;48.710;9.392;2023-02-01T19:14:40;7.30;91.40
814;DHT22;389;48.710;9.392;2023-02-01T19:17:09;7.30;91.40
814;DHT22;389;48.710;9.392;2023-02-01T19:19:34;7.30;91.30
814;DHT22;389;48.710;9.392;2023-02-01T19:22:01;7.40;91.40
814;DHT22;389;48.710;9.392;2023-02-01T19:24:28;7.30;91.30
814;DHT22;389;48.710;9.392;2023-02-01T19:26:54;7.40;91.40